EPLL

Łódź Władysław Reymont Airport

Łódź, Poland
METAR EPLL 242000Z 03010KT 9999 FEW008 OVC023 M10/M15 Q1028
Observed Flight Rules
Feb-24 @ 20:00 UTC (13 minutes ago) Marginal Visual Flight Rules
Wind Visibility Clouds
30° at 10 knots 10,000+ meters
  • Few at 800' AGL
  • Overcast at 2,300' AGL
Temperatures Readings
Current -10°C / 14°F
Dewpoint -15°C / 5°F
Humidity 67%
Altimeter 30.35" Hg
Pressure 1028 hPa
Elevation 184
METAR EPLL 242000Z 03010KT 9999 FEW008 OVC023 M10/M15 Q1028
Observed Flight Rules
Feb-24 @ 20:00 UTC
(13 minutes ago)
MVFR
Wind Visibility
30° at 10 knots 10,000+ meters
Clouds
  • Few at 800' AGL
  • Overcast at 2,300' AGL
Temperature Dewpoint
-10°C / 14°F -15°C / 5°F
Humidity Altimeter Pressure
67% 30.35" Hg 1028 hPa